sensor_id;sensor_type;location;lat;lon;timestamp;pressure;altitude;pressure_sealevel;temperature;humidity
12664;BME280;6396;58.490;15.528;2023-04-19T00:01:37;102928.91;;;7.36;95.80
12664;BME280;6396;58.490;15.528;2023-04-19T00:04:22;102233.03;;;3.18;93.47
12664;BME280;6396;58.490;15.528;2023-04-19T00:06:51;102928.81;;;7.33;97.25
12664;BME280;6396;58.490;15.528;2023-04-19T00:09:18;102474.03;;;4.58;88.69
12664;BME280;6396;58.490;15.528;2023-04-19T00:11:45;102980.09;;;7.18;91.77
12664;BME280;6396;58.490;15.528;2023-04-19T00:14:12;102727.91;;;6.11;88.46
12664;BME280;6396;58.490;15.528;2023-04-19T00:16:38;102916.75;;;7.06;91.15
12664;BME280;6396;58.490;15.528;2023-04-19T00:19:06;102859.03;;;6.74;91.13
12664;BME280;6396;58.490;15.528;2023-04-19T00:21:33;102854.03;;;6.84;88.15
12664;BME280;6396;58.490;15.528;2023-04-19T00:24:02;102915.25;;;7.15;95.23
12664;BME280;6396;58.490;15.528;2023-04-19T00:26:29;102843.41;;;6.79;91.87
12664;BME280;6396;58.490;15.528;2023-04-19T00:28:56;102905.50;;;7.11;93.57
12664;BME280;6396;58.490;15.528;2023-04-19T00:31:23;102894.97;;;7.10;92.93
12664;BME280;6396;58.490;15.528;2023-04-19T00:33:49;102737.72;;;6.18;94.74
12664;BME280;6396;58.490;15.528;2023-04-19T00:36:16;102710.94;;;5.97;100.00
12664;BME280;6396;58.490;15.528;2023-04-19T00:38:43;102956.06;;;7.03;100.00
12664;BME280;6396;58.490;15.528;2023-04-19T00:41:12;102138.59;;;2.17;100.00
12664;BME280;6396;58.490;15.528;2023-04-19T00:43:39;102893.13;;;7.07;99.60
12664;BME280;6396;58.490;15.528;2023-04-19T00:46:08;102204.28;;;2.61;99.04
12664;BME280;6396;58.490;15.528;2023-04-19T00:48:38;102232.16;;;2.90;100.00
12664;BME280;6396;58.490;15.528;2023-04-19T00:51:08;102034.16;;;2.10;100.00
12664;BME280;6396;58.490;15.528;2023-04-19T00:53:35;102932.13;;;6.91;100.00
12664;BME280;6396;58.490;15.528;2023-04-19T00:56:05;102177.03;;;2.24;99.04
12664;BME280;6396;58.490;15.528;2023-04-19T00:58:34;102892.44;;;6.80;100.00
12664;BME280;6396;58.490;15.528;2023-04-19T01:01:03;102711.41;;;5.82;100.00
12664;BME280;6396;58.490;15.528;2023-04-19T01:03:33;102541.88;;;4.83;100.00
12664;BME280;6396;58.490;15.528;2023-04-19T01:06:01;102266.63;;;2.80;100.00
12664;BME280;6396;58.490;15.528;2023-04-19T01:08:32;102146.06;;;2.34;100.00
12664;BME280;6396;58.490;15.528;2023-04-19T01:11:02;102248.75;;;2.65;100.00
12664;BME280;6396;58.490;15.528;2023-04-19T01:13:30;102535.41;;;4.71;100.00
12664;BME280;6396;58.490;15.528;2023-04-19T01:16:00;102960.47;;;6.71;100.00
12664;BME280;6396;58.490;15.528;2023-04-19T01:18:30;102240.63;;;2.56;100.00
12664;BME280;6396;58.490;15.528;2023-04-19T01:21:02;102892.16;;;6.69;100.00
12664;BME280;6396;58.490;15.528;2023-04-19T01:24:17;102517.41;;;4.51;100.00
12664;BME280;6396;58.490;15.528;2023-04-19T01:26:47;102147.69;;;2.03;100.00
12664;BME280;6396;58.490;15.528;2023-04-19T01:29:14;102212.31;;;2.40;100.00
12664;BME280;6396;58.490;15.528;2023-04-19T01:32:10;102134.16;;;1.63;100.00
12664;BME280;6396;58.490;15.528;2023-04-19T01:34:49;102187.75;;;2.07;100.00
12664;BME280;6396;58.490;15.528;2023-04-19T01:37:18;102878.50;;;6.50;100.00
12664;BME280;6396;58.490;15.528;2023-04-19T01:40:05;102876.75;;;6.49;100.00
12664;BME280;6396;58.490;15.528;2023-04-19T01:42:32;102392.44;;;3.24;100.00
12664;BME280;6396;58.490;15.528;2023-04-19T01:45:00;102188.94;;;1.91;100.00
12664;BME280;6396;58.490;15.528;2023-04-19T01:47:28;102142.88;;;2.15;100.00
12664;BME280;6396;58.490;15.528;2023-04-19T01:49:56;102445.16;;;3.96;100.00
12664;BME280;6396;58.490;15.528;2023-04-19T01:52:23;102263.41;;;2.62;100.00
12664;BME280;6396;58.490;15.528;2023-04-19T01:54:50;102874.66;;;6.37;100.00
12664;BME280;6396;58.490;15.528;2023-04-19T01:57:19;101926.25;;;0.92;100.00
12664;BME280;6396;58.490;15.528;2023-04-19T01:59:46;102430.84;;;3.55;100.00
12664;BME280;6396;58.490;15.528;2023-04-19T02:02:13;102879.38;;;6.19;100.00
12664;BME280;6396;58.490;15.528;2023-04-19T02:04:40;102436.28;;;3.63;100.00
12664;BME280;6396;58.490;15.528;2023-04-19T02:07:08;102898.66;;;6.20;100.00
12664;BME280;6396;58.490;15.528;2023-04-19T02:09:35;102551.19;;;3.88;100.00
12664;BME280;6396;58.490;15.528;2023-04-19T02:12:02;102418.25;;;3.17;100.00
12664;BME280;6396;58.490;15.528;2023-04-19T02:14:31;102216.63;;;2.13;100.00
12664;BME280;6396;58.490;15.528;2023-04-19T02:16:58;102965.16;;;6.22;100.00
12664;BME280;6396;58.490;15.528;2023-04-19T02:19:25;102256.56;;;2.13;100.00
12664;BME280;6396;58.490;15.528;2023-04-19T02:21:53;102152.19;;;1.82;100.00
12664;BME280;6396;58.490;15.528;2023-04-19T02:24:23;102907.13;;;6.10;100.00
12664;BME280;6396;58.490;15.528;2023-04-19T02:26:50;102646.06;;;4.67;100.00
12664;BME280;6396;58.490;15.528;2023-04-19T02:29:22;102040.78;;;0.97;100.00
12664;BME280;6396;58.490;15.528;2023-04-19T02:31:51;102900.34;;;5.88;100.00
12664;BME280;6396;58.490;15.528;2023-04-19T02:34:19;102909.16;;;5.90;100.00
12664;BME280;6396;58.490;15.528;2023-04-19T02:36:46;102737.75;;;4.44;100.00
12664;BME280;6396;58.490;15.528;2023-04-19T02:39:13;102918.03;;;5.95;100.00
12664;BME280;6396;58.490;15.528;2023-04-19T02:41:41;102904.09;;;5.96;100.00
12664;BME280;6396;58.490;15.528;2023-04-19T02:44:08;102843.56;;;5.60;100.00
12664;BME280;6396;58.490;15.528;2023-04-19T02:46:34;102849.28;;;5.47;100.00
12664;BME280;6396;58.490;15.528;2023-04-19T02:49:03;102934.53;;;5.91;100.00
12664;BME280;6396;58.490;15.528;2023-04-19T02:51:30;102751.28;;;5.13;100.00
12664;BME280;6396;58.490;15.528;2023-04-19T02:53:57;102110.09;;;0.96;100.00
12664;BME280;6396;58.490;15.528;2023-04-19T02:56:26;102785.94;;;5.04;100.00
12664;BME280;6396;58.490;15.528;2023-04-19T02:58:52;102920.13;;;5.79;100.00
12664;BME280;6396;58.490;15.528;2023-04-19T03:01:21;102833.28;;;5.38;100.00
12664;BME280;6396;58.490;15.528;2023-04-19T03:03:48;102867.56;;;5.46;100.00
12664;BME280;6396;58.490;15.528;2023-04-19T03:06:16;102821.13;;;5.40;100.00
12664;BME280;6396;58.490;15.528;2023-04-19T03:08:43;102665.28;;;4.40;100.00
12664;BME280;6396;58.490;15.528;2023-04-19T03:11:10;102841.84;;;5.33;100.00
12664;BME280;6396;58.490;15.528;2023-04-19T03:13:37;102848.16;;;5.39;100.00
12664;BME280;6396;58.490;15.528;2023-04-19T03:16:05;102875.63;;;5.52;100.00
12664;BME280;6396;58.490;15.528;2023-04-19T03:18:32;102862.59;;;5.55;100.00
12664;BME280;6396;58.490;15.528;2023-04-19T03:20:59;102922.38;;;5.66;100.00
12664;BME280;6396;58.490;15.528;2023-04-19T03:23:27;102768.50;;;5.05;100.00
12664;BME280;6396;58.490;15.528;2023-04-19T03:25:54;102766.84;;;4.80;100.00
12664;BME280;6396;58.490;15.528;2023-04-19T03:28:22;102886.56;;;5.67;100.00
12664;BME280;6396;58.490;15.528;2023-04-19T03:30:48;102496.78;;;3.23;100.00
12664;BME280;6396;58.490;15.528;2023-04-19T03:33:15;102863.34;;;5.23;100.00
12664;BME280;6396;58.490;15.528;2023-04-19T03:35:42;102864.22;;;5.23;100.00
12664;BME280;6396;58.490;15.528;2023-04-19T03:38:09;102882.72;;;5.28;100.00
12664;BME280;6396;58.490;15.528;2023-04-19T03:40:38;102898.44;;;5.28;100.00
12664;BME280;6396;58.490;15.528;2023-04-19T03:43:04;102790.50;;;4.83;100.00
12664;BME280;6396;58.490;15.528;2023-04-19T03:45:31;102677.69;;;4.19;100.00
12664;BME280;6396;58.490;15.528;2023-04-19T03:47:59;102933.91;;;5.45;100.00
12664;BME280;6396;58.490;15.528;2023-04-19T03:50:26;102079.41;;;0.63;100.00
12664;BME280;6396;58.490;15.528;2023-04-19T03:52:53;102435.22;;;2.78;100.00
12664;BME280;6396;58.490;15.528;2023-04-19T03:55:20;102833.69;;;4.97;100.00
12664;BME280;6396;58.490;15.528;2023-04-19T03:57:48;102867.13;;;5.06;100.00
12664;BME280;6396;58.490;15.528;2023-04-19T04:00:16;102905.81;;;5.41;100.00
12664;BME280;6396;58.490;15.528;2023-04-19T04:02:43;102817.97;;;4.71;100.00
12664;BME280;6396;58.490;15.528;2023-04-19T04:05:10;102704.25;;;4.33;100.00
12664;BME280;6396;58.490;15.528;2023-04-19T04:07:36;102905.94;;;5.44;100.00
12664;BME280;6396;58.490;15.528;2023-04-19T04:10:04;102933.88;;;5.43;100.00
12664;BME280;6396;58.490;15.528;2023-04-19T04:12:31;102706.38;;;3.93;100.00
12664;BME280;6396;58.490;15.528;2023-04-19T04:15:04;102906.06;;;5.48;100.00
12664;BME280;6396;58.490;15.528;2023-04-19T04:17:31;102444.84;;;2.80;100.00
12664;BME280;6396;58.490;15.528;2023-04-19T04:20:04;102228.19;;;1.25;100.00
12664;BME280;6396;58.490;15.528;2023-04-19T04:22:34;102109.44;;;0.78;100.00
12664;BME280;6396;58.490;15.528;2023-04-19T04:25:08;102214.69;;;1.35;100.00
12664;BME280;6396;58.490;15.528;2023-04-19T04:27:37;102901.72;;;5.49;100.00
12664;BME280;6396;58.490;15.528;2023-04-19T04:30:07;102929.09;;;5.58;100.00
12664;BME280;6396;58.490;15.528;2023-04-19T04:32:34;102559.94;;;3.13;100.00
12664;BME280;6396;58.490;15.528;2023-04-19T04:35:01;102880.31;;;5.35;100.00
12664;BME280;6396;58.490;15.528;2023-04-19T04:37:30;102746.81;;;4.29;100.00
12664;BME280;6396;58.490;15.528;2023-04-19T04:39:58;102605.53;;;3.73;100.00
12664;BME280;6396;58.490;15.528;2023-04-19T04:42:25;102234.44;;;1.52;100.00
12664;BME280;6396;58.490;15.528;2023-04-19T04:44:56;102608.03;;;3.95;100.00
12664;BME280;6396;58.490;15.528;2023-04-19T04:47:30;102793.63;;;4.98;100.00
12664;BME280;6396;58.490;15.528;2023-04-19T04:49:58;102850.13;;;5.20;100.00
12664;BME280;6396;58.490;15.528;2023-04-19T04:52:24;102908.13;;;5.85;100.00
12664;BME280;6396;58.490;15.528;2023-04-19T04:54:51;102911.72;;;5.89;100.00
12664;BME280;6396;58.490;15.528;2023-04-19T04:57:18;102817.69;;;5.15;100.00
12664;BME280;6396;58.490;15.528;2023-04-19T04:59:45;102715.97;;;4.44;100.00
12664;BME280;6396;58.490;15.528;2023-04-19T05:02:13;102916.34;;;5.97;100.00
12664;BME280;6396;58.490;15.528;2023-04-19T05:04:41;102893.03;;;5.78;100.00
12664;BME280;6396;58.490;15.528;2023-04-19T05:07:08;102921.13;;;6.10;100.00
12664;BME280;6396;58.490;15.528;2023-04-19T05:09:35;102891.34;;;5.80;100.00
12664;BME280;6396;58.490;15.528;2023-04-19T05:12:08;102905.25;;;6.06;100.00
12664;BME280;6396;58.490;15.528;2023-04-19T05:14:35;102893.34;;;5.87;100.00
12664;BME280;6396;58.490;15.528;2023-04-19T05:17:02;102796.97;;;5.50;100.00
12664;BME280;6396;58.490;15.528;2023-04-19T05:19:29;102564.06;;;4.10;100.00
12664;BME280;6396;58.490;15.528;2023-04-19T05:21:57;102919.53;;;6.15;100.00
12664;BME280;6396;58.490;15.528;2023-04-19T05:24:24;102945.59;;;6.40;100.00
12664;BME280;6396;58.490;15.528;2023-04-19T05:26:50;102892.63;;;6.22;100.00
12664;BME280;6396;58.490;15.528;2023-04-19T05:29:17;102912.63;;;6.50;100.00
12664;BME280;6396;58.490;15.528;2023-04-19T05:31:44;102917.41;;;6.33;100.00
12664;BME280;6396;58.490;15.528;2023-04-19T05:34:11;102919.94;;;6.61;100.00
12664;BME280;6396;58.490;15.528;2023-04-19T05:36:38;102930.50;;;6.63;100.00
12664;BME280;6396;58.490;15.528;2023-04-19T05:39:06;102942.88;;;6.68;100.00
12664;BME280;6396;58.490;15.528;2023-04-19T05:41:34;102920.22;;;6.72;100.00
12664;BME280;6396;58.490;15.528;2023-04-19T05:44:02;102665.41;;;5.31;100.00
12664;BME280;6396;58.490;15.528;2023-04-19T05:46:31;102655.56;;;5.22;100.00
12664;BME280;6396;58.490;15.528;2023-04-19T05:49:01;102923.25;;;6.86;100.00
12664;BME280;6396;58.490;15.528;2023-04-19T05:51:28;102835.16;;;6.31;100.00
12664;BME280;6396;58.490;15.528;2023-04-19T05:53:56;102923.41;;;6.93;100.00
12664;BME280;6396;58.490;15.528;2023-04-19T05:56:24;102935.00;;;7.00;100.00
12664;BME280;6396;58.490;15.528;2023-04-19T05:58:51;102861.72;;;6.76;100.00
12664;BME280;6396;58.490;15.528;2023-04-19T06:01:19;102875.28;;;6.93;100.00
12664;BME280;6396;58.490;15.528;2023-04-19T06:03:46;102942.59;;;7.23;100.00
12664;BME280;6396;58.490;15.528;2023-04-19T06:06:17;102283.09;;;3.63;100.00
12664;BME280;6396;58.490;15.528;2023-04-19T06:08:45;102916.56;;;7.34;100.00
12664;BME280;6396;58.490;15.528;2023-04-19T06:11:12;102940.47;;;7.44;100.00
12664;BME280;6396;58.490;15.528;2023-04-19T06:13:40;102903.44;;;7.34;100.00
12664;BME280;6396;58.490;15.528;2023-04-19T06:16:07;102946.06;;;7.58;100.00
12664;BME280;6396;58.490;15.528;2023-04-19T06:18:34;102885.00;;;7.32;100.00
12664;BME280;6396;58.490;15.528;2023-04-19T06:21:01;102890.56;;;7.46;100.00
12664;BME280;6396;58.490;15.528;2023-04-19T06:23:28;102581.44;;;5.90;100.00
12664;BME280;6396;58.490;15.528;2023-04-19T06:25:55;102933.66;;;7.89;100.00
12664;BME280;6396;58.490;15.528;2023-04-19T06:28:21;102889.19;;;7.63;100.00
12664;BME280;6396;58.490;15.528;2023-04-19T06:30:50;102889.78;;;7.87;100.00
12664;BME280;6396;58.490;15.528;2023-04-19T06:33:16;102921.97;;;8.17;100.00
12664;BME280;6396;58.490;15.528;2023-04-19T06:35:43;102944.88;;;8.23;100.00
12664;BME280;6396;58.490;15.528;2023-04-19T06:38:10;102806.88;;;7.65;100.00
12664;BME280;6396;58.490;15.528;2023-04-19T06:40:37;102732.56;;;7.31;100.00
12664;BME280;6396;58.490;15.528;2023-04-19T06:43:04;102471.22;;;6.24;100.00
12664;BME280;6396;58.490;15.528;2023-04-19T06:45:31;102936.94;;;9.09;97.94
12664;BME280;6396;58.490;15.528;2023-04-19T06:47:59;102872.31;;;9.32;100.00
12664;BME280;6396;58.490;15.528;2023-04-19T06:50:26;102923.78;;;10.27;93.54
12664;BME280;6396;58.490;15.528;2023-04-19T06:52:53;102993.13;;;10.81;87.09
12664;BME280;6396;58.490;15.528;2023-04-19T06:55:20;102524.63;;;9.65;83.06
12664;BME280;6396;58.490;15.528;2023-04-19T06:57:47;102688.81;;;12.25;73.28
12664;BME280;6396;58.490;15.528;2023-04-19T07:00:14;102747.75;;;13.74;62.72
12664;BME280;6396;58.490;15.528;2023-04-19T07:02:41;102702.59;;;14.90;56.59
12664;BME280;6396;58.490;15.528;2023-04-19T07:05:10;102587.78;;;15.19;54.78
12664;BME280;6396;58.490;15.528;2023-04-19T07:07:41;102434.13;;;15.30;48.28
12664;BME280;6396;58.490;15.528;2023-04-19T07:10:17;102879.22;;;19.15;47.02
12664;BME280;6396;58.490;15.528;2023-04-19T07:12:44;102793.16;;;19.59;45.89
12664;BME280;6396;58.490;15.528;2023-04-19T07:15:26;102388.47;;;17.88;40.63
12664;BME280;6396;58.490;15.528;2023-04-19T07:17:55;102929.56;;;21.72;42.73
12664;BME280;6396;58.490;15.528;2023-04-19T07:23:51;102538.84;;;20.02;36.90
12664;BME280;6396;58.490;15.528;2023-04-19T07:26:27;102473.78;;;19.71;39.37
12664;BME280;6396;58.490;15.528;2023-04-19T07:28:54;102811.88;;;21.79;37.21
12664;BME280;6396;58.490;15.528;2023-04-19T07:31:27;102637.13;;;21.30;36.97
12664;BME280;6396;58.490;15.528;2023-04-19T07:34:07;102682.91;;;21.51;33.26
12664;BME280;6396;58.490;15.528;2023-04-19T07:36:35;102890.88;;;22.47;35.68
12664;BME280;6396;58.490;15.528;2023-04-19T07:39:03;102690.31;;;21.22;35.46
12664;BME280;6396;58.490;15.528;2023-04-19T07:41:30;102689.81;;;21.81;35.58
12664;BME280;6396;58.490;15.528;2023-04-19T07:43:57;102730.28;;;22.23;34.68
12664;BME280;6396;58.490;15.528;2023-04-19T07:46:24;102777.84;;;23.09;34.26
12664;BME280;6396;58.490;15.528;2023-04-19T07:48:51;102328.91;;;20.21;33.63
12664;BME280;6396;58.490;15.528;2023-04-19T07:51:17;102900.91;;;23.52;34.02
12664;BME280;6396;58.490;15.528;2023-04-19T07:53:45;102903.22;;;23.81;33.34
12664;BME280;6396;58.490;15.528;2023-04-19T07:56:14;102779.03;;;23.22;32.21
12664;BME280;6396;58.490;15.528;2023-04-19T07:58:41;102844.22;;;23.33;32.41
12664;BME280;6396;58.490;15.528;2023-04-19T08:01:07;102723.81;;;22.70;32.77
12664;BME280;6396;58.490;15.528;2023-04-19T08:03:34;102909.34;;;24.24;32.11
12664;BME280;6396;58.490;15.528;2023-04-19T08:06:02;102860.00;;;24.77;32.23
12664;BME280;6396;58.490;15.528;2023-04-19T08:08:29;102836.78;;;24.17;31.33
12664;BME280;6396;58.490;15.528;2023-04-19T08:10:56;102919.06;;;24.47;31.72
12664;BME280;6396;58.490;15.528;2023-04-19T08:13:24;102879.84;;;24.39;30.90
12664;BME280;6396;58.490;15.528;2023-04-19T08:15:51;102855.91;;;23.92;30.50
12664;BME280;6396;58.490;15.528;2023-04-19T08:18:18;102868.88;;;24.23;30.70
12664;BME280;6396;58.490;15.528;2023-04-19T08:21:15;102861.78;;;23.82;29.78
12664;BME280;6396;58.490;15.528;2023-04-19T08:23:47;102879.31;;;23.92;29.32
12664;BME280;6396;58.490;15.528;2023-04-19T08:26:31;102855.97;;;23.91;30.94
12664;BME280;6396;58.490;15.528;2023-04-19T08:29:00;102863.25;;;23.89;30.06
12664;BME280;6396;58.490;15.528;2023-04-19T08:31:32;102891.06;;;23.71;29.19
12664;BME280;6396;58.490;15.528;2023-04-19T08:33:59;102588.59;;;22.21;30.24
12664;BME280;6396;58.490;15.528;2023-04-19T08:36:31;102370.78;;;21.14;28.42
12664;BME280;6396;58.490;15.528;2023-04-19T08:39:08;102304.88;;;21.05;29.27
12664;BME280;6396;58.490;15.528;2023-04-19T08:41:43;102595.19;;;22.94;29.03
12664;BME280;6396;58.490;15.528;2023-04-19T08:44:56;102314.00;;;21.01;29.33
12664;BME280;6396;58.490;15.528;2023-04-19T08:47:38;102372.88;;;21.08;30.79
12664;BME280;6396;58.490;15.528;2023-04-19T08:50:16;102346.47;;;20.74;29.13
12664;BME280;6396;58.490;15.528;2023-04-19T08:52:47;102193.63;;;20.05;29.33
12664;BME280;6396;58.490;15.528;2023-04-19T08:55:15;102557.34;;;22.16;30.16
12664;BME280;6396;58.490;15.528;2023-04-19T08:57:42;102893.69;;;23.92;29.97
12664;BME280;6396;58.490;15.528;2023-04-19T09:03:30;102514.00;;;21.82;30.09
12664;BME280;6396;58.490;15.528;2023-04-19T09:05:59;102295.22;;;20.80;29.88
12664;BME280;6396;58.490;15.528;2023-04-19T09:08:28;102301.34;;;20.83;29.73
12664;BME280;6396;58.490;15.528;2023-04-19T09:10:58;102629.94;;;22.61;29.69
12664;BME280;6396;58.490;15.528;2023-04-19T09:13:26;102353.09;;;20.65;29.96
12664;BME280;6396;58.490;15.528;2023-04-19T09:15:57;102658.91;;;22.13;30.03
12664;BME280;6396;58.490;15.528;2023-04-19T09:18:30;102279.97;;;19.91;29.82
12664;BME280;6396;58.490;15.528;2023-04-19T09:20:59;102287.66;;;20.00;30.45
12664;BME280;6396;58.490;15.528;2023-04-19T09:23:30;102313.84;;;19.93;30.43
12664;BME280;6396;58.490;15.528;2023-04-19T09:26:12;102737.66;;;22.40;30.01
12664;BME280;6396;58.490;15.528;2023-04-19T09:29:01;102308.34;;;19.96;29.65
12664;BME280;6396;58.490;15.528;2023-04-19T09:31:30;102472.75;;;20.49;30.67
12664;BME280;6396;58.490;15.528;2023-04-19T09:38:23;102770.84;;;22.40;30.92
12664;BME280;6396;58.490;15.528;2023-04-19T09:40:51;102524.16;;;21.10;31.60
12664;BME280;6396;58.490;15.528;2023-04-19T09:43:23;102525.59;;;21.40;30.77
12664;BME280;6396;58.490;15.528;2023-04-19T09:46:07;102844.28;;;23.10;31.07
12664;BME280;6396;58.490;15.528;2023-04-19T09:48:34;102888.81;;;22.77;31.35
12664;BME280;6396;58.490;15.528;2023-04-19T09:51:16;102811.72;;;22.51;30.48
12664;BME280;6396;58.490;15.528;2023-04-19T09:57:09;102467.97;;;19.83;30.72
12664;BME280;6396;58.490;15.528;2023-04-19T09:59:38;102841.53;;;22.24;31.62
12664;BME280;6396;58.490;15.528;2023-04-19T10:02:23;102250.41;;;18.43;31.15
12664;BME280;6396;58.490;15.528;2023-04-19T10:05:17;102135.09;;;17.69;30.64
12664;BME280;6396;58.490;15.528;2023-04-19T10:08:00;102885.38;;;22.04;29.67
12664;BME280;6396;58.490;15.528;2023-04-19T10:10:30;102616.44;;;20.84;31.26
12664;BME280;6396;58.490;15.528;2023-04-19T10:13:02;102849.56;;;21.77;30.79
12664;BME280;6396;58.490;15.528;2023-04-19T10:15:29;102618.03;;;20.65;31.25
12664;BME280;6396;58.490;15.528;2023-04-19T10:17:58;102837.44;;;21.90;30.93
12664;BME280;6396;58.490;15.528;2023-04-19T10:20:33;102811.03;;;21.52;30.87
12664;BME280;6396;58.490;15.528;2023-04-19T10:23:06;102819.34;;;21.69;31.37
12664;BME280;6396;58.490;15.528;2023-04-19T10:25:39;102771.53;;;21.30;31.50
12664;BME280;6396;58.490;15.528;2023-04-19T10:28:14;102741.63;;;22.09;29.24
12664;BME280;6396;58.490;15.528;2023-04-19T10:30:52;102771.53;;;22.88;29.08
12664;BME280;6396;58.490;15.528;2023-04-19T10:33:24;102769.09;;;21.48;30.94
12664;BME280;6396;58.490;15.528;2023-04-19T10:35:54;102392.25;;;20.71;28.37
12664;BME280;6396;58.490;15.528;2023-04-19T10:38:35;102807.66;;;21.47;30.12
12664;BME280;6396;58.490;15.528;2023-04-19T10:41:02;102797.38;;;22.72;30.85
12664;BME280;6396;58.490;15.528;2023-04-19T10:43:38;102761.81;;;21.50;32.02
12664;BME280;6396;58.490;15.528;2023-04-19T10:46:06;102783.31;;;21.26;32.28
12664;BME280;6396;58.490;15.528;2023-04-19T10:48:35;102796.56;;;21.07;32.12
12664;BME280;6396;58.490;15.528;2023-04-19T10:51:10;102799.19;;;21.08;32.32
12664;BME280;6396;58.490;15.528;2023-04-19T10:54:05;102787.91;;;21.48;31.13
12664;BME280;6396;58.490;15.528;2023-04-19T10:57:00;102760.69;;;20.28;31.63
12664;BME280;6396;58.490;15.528;2023-04-19T10:59:30;102796.13;;;20.67;31.87
12664;BME280;6396;58.490;15.528;2023-04-19T11:01:58;102789.66;;;20.72;33.12
12664;BME280;6396;58.490;15.528;2023-04-19T11:04:58;102783.69;;;20.37;32.33
12664;BME280;6396;58.490;15.528;2023-04-19T11:07:25;102676.56;;;20.01;32.52
12664;BME280;6396;58.490;15.528;2023-04-19T11:09:52;102786.88;;;20.75;32.27
12664;BME280;6396;58.490;15.528;2023-04-19T11:12:20;102779.81;;;20.73;31.19
12664;BME280;6396;58.490;15.528;2023-04-19T11:14:51;102776.84;;;20.80;33.10
12664;BME280;6396;58.490;15.528;2023-04-19T11:17:19;102795.69;;;20.79;33.71
12664;BME280;6396;58.490;15.528;2023-04-19T11:19:52;102762.28;;;20.61;33.55
12664;BME280;6396;58.490;15.528;2023-04-19T11:22:24;102647.22;;;19.97;33.50
12664;BME280;6396;58.490;15.528;2023-04-19T11:24:51;102763.63;;;20.74;34.10
12664;BME280;6396;58.490;15.528;2023-04-19T11:27:17;102770.44;;;20.58;33.43
12664;BME280;6396;58.490;15.528;2023-04-19T11:29:44;102797.28;;;20.58;33.01
12664;BME280;6396;58.490;15.528;2023-04-19T11:32:12;102775.03;;;20.55;33.54
12664;BME280;6396;58.490;15.528;2023-04-19T11:34:39;102604.78;;;19.25;33.48
12664;BME280;6396;58.490;15.528;2023-04-19T11:37:08;102776.22;;;20.19;32.33
12664;BME280;6396;58.490;15.528;2023-04-19T11:39:44;102791.59;;;20.12;33.96
12664;BME280;6396;58.490;15.528;2023-04-19T11:42:16;102770.03;;;20.15;33.98
12664;BME280;6396;58.490;15.528;2023-04-19T11:44:48;102768.50;;;20.07;34.10
12664;BME280;6396;58.490;15.528;2023-04-19T11:47:18;102768.19;;;20.17;34.75
12664;BME280;6396;58.490;15.528;2023-04-19T11:49:45;102771.06;;;20.11;34.99
12664;BME280;6396;58.490;15.528;2023-04-19T11:52:19;102759.72;;;20.01;34.19
12664;BME280;6396;58.490;15.528;2023-04-19T11:54:46;102606.34;;;19.03;35.07
12664;BME280;6396;58.490;15.528;2023-04-19T11:57:13;102752.78;;;19.94;35.21
12664;BME280;6396;58.490;15.528;2023-04-19T12:00:06;102760.50;;;19.76;34.86
12664;BME280;6396;58.490;15.528;2023-04-19T12:02:41;102620.41;;;18.80;35.06
12664;BME280;6396;58.490;15.528;2023-04-19T12:05:09;102704.63;;;19.32;36.47
12664;BME280;6396;58.490;15.528;2023-04-19T12:07:36;102750.16;;;19.33;35.00
12664;BME280;6396;58.490;15.528;2023-04-19T12:10:10;102760.81;;;19.03;32.62
12664;BME280;6396;58.490;15.528;2023-04-19T12:12:38;102751.94;;;19.01;35.38
12664;BME280;6396;58.490;15.528;2023-04-19T12:15:06;102660.00;;;18.33;34.25
12664;BME280;6396;58.490;15.528;2023-04-19T12:17:33;102753.38;;;18.80;35.77
12664;BME280;6396;58.490;15.528;2023-04-19T12:20:01;102419.63;;;16.82;36.12
12664;BME280;6396;58.490;15.528;2023-04-19T12:22:28;102739.47;;;18.66;36.97
12664;BME280;6396;58.490;15.528;2023-04-19T12:24:56;102759.44;;;18.51;37.10
12664;BME280;6396;58.490;15.528;2023-04-19T12:27:22;102674.97;;;18.05;36.88
12664;BME280;6396;58.490;15.528;2023-04-19T12:29:50;102730.59;;;18.27;37.78
12664;BME280;6396;58.490;15.528;2023-04-19T12:32:16;102664.91;;;17.77;38.21
12664;BME280;6396;58.490;15.528;2023-04-19T12:34:43;102731.78;;;18.16;38.12
12664;BME280;6396;58.490;15.528;2023-04-19T12:37:11;102729.00;;;18.19;37.24
12664;BME280;6396;58.490;15.528;2023-04-19T12:39:38;102682.00;;;17.72;38.43
12664;BME280;6396;58.490;15.528;2023-04-19T12:42:05;102728.63;;;17.97;37.77
12664;BME280;6396;58.490;15.528;2023-04-19T12:44:31;102725.28;;;17.88;38.93
12664;BME280;6396;58.490;15.528;2023-04-19T12:46:58;102716.63;;;17.76;39.05
12664;BME280;6396;58.490;15.528;2023-04-19T12:49:25;102718.31;;;17.80;39.13
12664;BME280;6396;58.490;15.528;2023-04-19T12:51:52;102735.28;;;17.78;38.96
12664;BME280;6396;58.490;15.528;2023-04-19T12:54:20;102715.00;;;17.69;37.15
12664;BME280;6396;58.490;15.528;2023-04-19T12:56:47;102490.00;;;15.88;37.68
12664;BME280;6396;58.490;15.528;2023-04-19T12:59:13;102710.22;;;17.41;38.45
12664;BME280;6396;58.490;15.528;2023-04-19T13:01:40;102522.09;;;16.27;39.03
12664;BME280;6396;58.490;15.528;2023-04-19T13:04:07;102621.66;;;16.77;38.56
12664;BME280;6396;58.490;15.528;2023-04-19T13:06:36;102707.69;;;17.35;39.26
12664;BME280;6396;58.490;15.528;2023-04-19T13:09:04;102700.69;;;17.29;39.87
12664;BME280;6396;58.490;15.528;2023-04-19T13:11:32;102702.44;;;17.32;40.33
12664;BME280;6396;58.490;15.528;2023-04-19T13:13:59;102706.00;;;17.31;40.44
12664;BME280;6396;58.490;15.528;2023-04-19T13:16:26;102687.06;;;16.97;40.62
12664;BME280;6396;58.490;15.528;2023-04-19T13:18:53;102622.88;;;16.59;41.42